sensor_id;sensor_type;location;lat;lon;timestamp;temperature;humidity
9837;DHT22;4957;51.412;6.724;2023-06-24T00:01:40;23.00;70.40
9837;DHT22;4957;51.412;6.724;2023-06-24T00:04:05;23.00;70.60
9837;DHT22;4957;51.412;6.724;2023-06-24T00:06:31;22.90;70.70
9837;DHT22;4957;51.412;6.724;2023-06-24T00:08:57;22.90;71.00
9837;DHT22;4957;51.412;6.724;2023-06-24T00:11:30;22.80;71.10
9837;DHT22;4957;51.412;6.724;2023-06-24T00:13:56;22.80;71.40
9837;DHT22;4957;51.412;6.724;2023-06-24T00:16:22;22.80;71.30
9837;DHT22;4957;51.412;6.724;2023-06-24T00:18:53;22.70;71.20
9837;DHT22;4957;51.412;6.724;2023-06-24T00:21:19;22.60;71.70
9837;DHT22;4957;51.412;6.724;2023-06-24T00:23:45;22.60;72.00
9837;DHT22;4957;51.412;6.724;2023-06-24T00:26:10;22.50;72.00
9837;DHT22;4957;51.412;6.724;2023-06-24T00:28:36;22.50;72.20
9837;DHT22;4957;51.412;6.724;2023-06-24T00:31:02;22.40;73.10
9837;DHT22;4957;51.412;6.724;2023-06-24T00:33:29;22.40;73.20
9837;DHT22;4957;51.412;6.724;2023-06-24T00:35:54;22.30;73.20
9837;DHT22;4957;51.412;6.724;2023-06-24T00:38:22;22.30;73.30
9837;DHT22;4957;51.412;6.724;2023-06-24T00:40:48;22.30;73.50
9837;DHT22;4957;51.412;6.724;2023-06-24T00:43:13;22.30;73.60
9837;DHT22;4957;51.412;6.724;2023-06-24T00:45:39;22.20;74.00
9837;DHT22;4957;51.412;6.724;2023-06-24T00:48:05;22.20;73.90
9837;DHT22;4957;51.412;6.724;2023-06-24T00:50:31;22.10;74.10
9837;DHT22;4957;51.412;6.724;2023-06-24T00:52:57;22.10;74.50
9837;DHT22;4957;51.412;6.724;2023-06-24T00:55:23;22.10;74.90
9837;DHT22;4957;51.412;6.724;2023-06-24T00:57:51;22.00;74.50
9837;DHT22;4957;51.412;6.724;2023-06-24T01:00:19;22.00;75.10
9837;DHT22;4957;51.412;6.724;2023-06-24T01:02:49;21.90;75.30
9837;DHT22;4957;51.412;6.724;2023-06-24T01:05:15;21.90;75.70
9837;DHT22;4957;51.412;6.724;2023-06-24T01:07:42;21.90;75.70
9837;DHT22;4957;51.412;6.724;2023-06-24T01:10:09;21.80;75.70
9837;DHT22;4957;51.412;6.724;2023-06-24T01:12:36;21.80;76.00
9837;DHT22;4957;51.412;6.724;2023-06-24T01:15:06;21.70;76.50
9837;DHT22;4957;51.412;6.724;2023-06-24T01:31:57;21.50;78.50
9837;DHT22;4957;51.412;6.724;2023-06-24T01:34:59;21.50;78.60
9837;DHT22;4957;51.412;6.724;2023-06-24T01:40:26;21.30;77.80
9837;DHT22;4957;51.412;6.724;2023-06-24T01:42:54;21.30;78.30
9837;DHT22;4957;51.412;6.724;2023-06-24T01:45:26;21.30;78.30
9837;DHT22;4957;51.412;6.724;2023-06-24T01:48:07;21.20;79.00
9837;DHT22;4957;51.412;6.724;2023-06-24T01:50:36;21.20;80.00
9837;DHT22;4957;51.412;6.724;2023-06-24T01:53:06;21.10;79.50
9837;DHT22;4957;51.412;6.724;2023-06-24T01:55:34;21.10;80.10
9837;DHT22;4957;51.412;6.724;2023-06-24T01:58:02;21.10;80.10
9837;DHT22;4957;51.412;6.724;2023-06-24T02:00:29;21.00;80.60
9837;DHT22;4957;51.412;6.724;2023-06-24T02:02:55;21.00;80.70
9837;DHT22;4957;51.412;6.724;2023-06-24T02:05:21;21.00;80.70
9837;DHT22;4957;51.412;6.724;2023-06-24T02:07:50;20.90;81.20
9837;DHT22;4957;51.412;6.724;2023-06-24T02:10:18;20.90;81.30
9837;DHT22;4957;51.412;6.724;2023-06-24T02:12:46;20.90;81.70
9837;DHT22;4957;51.412;6.724;2023-06-24T02:15:14;20.90;82.00
9837;DHT22;4957;51.412;6.724;2023-06-24T02:17:40;20.90;82.20
9837;DHT22;4957;51.412;6.724;2023-06-24T02:20:07;20.80;82.10
9837;DHT22;4957;51.412;6.724;2023-06-24T02:22:35;20.80;82.50
9837;DHT22;4957;51.412;6.724;2023-06-24T02:25:01;20.80;82.40
9837;DHT22;4957;51.412;6.724;2023-06-24T02:27:28;20.70;82.50
9837;DHT22;4957;51.412;6.724;2023-06-24T02:29:55;20.70;82.60
9837;DHT22;4957;51.412;6.724;2023-06-24T02:32:22;20.70;82.80
9837;DHT22;4957;51.412;6.724;2023-06-24T02:34:47;20.60;82.60
9837;DHT22;4957;51.412;6.724;2023-06-24T02:37:13;20.60;82.90
9837;DHT22;4957;51.412;6.724;2023-06-24T02:39:39;20.60;83.20
9837;DHT22;4957;51.412;6.724;2023-06-24T02:42:10;20.60;83.30
9837;DHT22;4957;51.412;6.724;2023-06-24T02:44:37;20.50;83.20
9837;DHT22;4957;51.412;6.724;2023-06-24T02:47:03;20.60;84.00
9837;DHT22;4957;51.412;6.724;2023-06-24T02:49:30;20.50;83.90
9837;DHT22;4957;51.412;6.724;2023-06-24T02:51:57;20.50;83.80
9837;DHT22;4957;51.412;6.724;2023-06-24T02:54:23;20.50;83.60
9837;DHT22;4957;51.412;6.724;2023-06-24T02:56:49;20.50;83.30
9837;DHT22;4957;51.412;6.724;2023-06-24T02:59:15;20.40;83.30
9837;DHT22;4957;51.412;6.724;2023-06-24T03:01:40;20.40;83.50
9837;DHT22;4957;51.412;6.724;2023-06-24T03:04:11;20.30;83.70
9837;DHT22;4957;51.412;6.724;2023-06-24T03:06:37;20.30;83.80
9837;DHT22;4957;51.412;6.724;2023-06-24T03:09:05;20.30;83.80
9837;DHT22;4957;51.412;6.724;2023-06-24T03:11:43;20.30;84.20
9837;DHT22;4957;51.412;6.724;2023-06-24T03:14:10;20.20;84.80
9837;DHT22;4957;51.412;6.724;2023-06-24T03:16:35;20.20;84.30
9837;DHT22;4957;51.412;6.724;2023-06-24T03:19:02;20.10;84.70
9837;DHT22;4957;51.412;6.724;2023-06-24T03:21:27;20.10;84.80
9837;DHT22;4957;51.412;6.724;2023-06-24T03:23:54;20.10;85.00
9837;DHT22;4957;51.412;6.724;2023-06-24T03:26:20;20.00;85.40
9837;DHT22;4957;51.412;6.724;2023-06-24T03:28:46;20.00;85.80
9837;DHT22;4957;51.412;6.724;2023-06-24T03:31:11;19.90;85.80
9837;DHT22;4957;51.412;6.724;2023-06-24T03:33:37;19.90;85.60
9837;DHT22;4957;51.412;6.724;2023-06-24T03:36:03;19.90;85.60
9837;DHT22;4957;51.412;6.724;2023-06-24T03:38:29;19.90;85.90
9837;DHT22;4957;51.412;6.724;2023-06-24T03:40:54;19.90;86.10
9837;DHT22;4957;51.412;6.724;2023-06-24T03:43:20;19.80;86.40
9837;DHT22;4957;51.412;6.724;2023-06-24T03:45:45;19.80;86.30
9837;DHT22;4957;51.412;6.724;2023-06-24T03:48:11;19.80;86.20
9837;DHT22;4957;51.412;6.724;2023-06-24T03:50:37;19.80;86.70
9837;DHT22;4957;51.412;6.724;2023-06-24T03:53:04;19.80;87.10
9837;DHT22;4957;51.412;6.724;2023-06-24T03:55:30;19.80;87.20
9837;DHT22;4957;51.412;6.724;2023-06-24T03:57:55;19.80;87.10
9837;DHT22;4957;51.412;6.724;2023-06-24T04:00:21;19.80;86.80
9837;DHT22;4957;51.412;6.724;2023-06-24T04:02:47;19.80;87.30
9837;DHT22;4957;51.412;6.724;2023-06-24T04:05:13;19.80;88.30
9837;DHT22;4957;51.412;6.724;2023-06-24T04:07:40;19.80;88.30
9837;DHT22;4957;51.412;6.724;2023-06-24T04:10:06;19.80;88.20
9837;DHT22;4957;51.412;6.724;2023-06-24T04:12:35;19.80;88.10
9837;DHT22;4957;51.412;6.724;2023-06-24T04:15:02;19.80;88.70
9837;DHT22;4957;51.412;6.724;2023-06-24T04:17:28;19.80;89.50
9837;DHT22;4957;51.412;6.724;2023-06-24T04:19:54;19.80;90.10
9837;DHT22;4957;51.412;6.724;2023-06-24T04:22:20;19.80;89.80
9837;DHT22;4957;51.412;6.724;2023-06-24T04:24:46;19.80;90.10
9837;DHT22;4957;51.412;6.724;2023-06-24T04:27:11;19.80;90.20
9837;DHT22;4957;51.412;6.724;2023-06-24T04:29:37;19.80;90.70
9837;DHT22;4957;51.412;6.724;2023-06-24T04:32:03;19.80;90.40
9837;DHT22;4957;51.412;6.724;2023-06-24T04:34:29;19.80;90.40
9837;DHT22;4957;51.412;6.724;2023-06-24T04:36:54;19.80;90.60
9837;DHT22;4957;51.412;6.724;2023-06-24T04:39:20;19.90;90.90
9837;DHT22;4957;51.412;6.724;2023-06-24T04:41:49;19.90;91.10
9837;DHT22;4957;51.412;6.724;2023-06-24T04:44:15;19.90;91.10
9837;DHT22;4957;51.412;6.724;2023-06-24T04:46:40;19.90;91.20
9837;DHT22;4957;51.412;6.724;2023-06-24T04:49:06;19.90;91.40
9837;DHT22;4957;51.412;6.724;2023-06-24T04:51:32;19.90;91.40
9837;DHT22;4957;51.412;6.724;2023-06-24T04:53:58;19.90;91.40
9837;DHT22;4957;51.412;6.724;2023-06-24T04:56:24;19.90;91.80
9837;DHT22;4957;51.412;6.724;2023-06-24T04:58:50;20.00;91.90
9837;DHT22;4957;51.412;6.724;2023-06-24T05:01:16;20.00;91.90
9837;DHT22;4957;51.412;6.724;2023-06-24T05:03:42;20.00;92.30
9837;DHT22;4957;51.412;6.724;2023-06-24T05:06:08;20.10;92.60
9837;DHT22;4957;51.412;6.724;2023-06-24T05:08:33;20.10;93.00
9837;DHT22;4957;51.412;6.724;2023-06-24T05:10:59;20.10;93.40
9837;DHT22;4957;51.412;6.724;2023-06-24T05:13:26;20.10;93.70
9837;DHT22;4957;51.412;6.724;2023-06-24T05:15:52;20.20;94.00
9837;DHT22;4957;51.412;6.724;2023-06-24T05:18:18;20.20;94.20
9837;DHT22;4957;51.412;6.724;2023-06-24T05:20:43;20.20;94.40
9837;DHT22;4957;51.412;6.724;2023-06-24T05:23:09;20.30;94.40
9837;DHT22;4957;51.412;6.724;2023-06-24T05:25:35;20.40;94.70
9837;DHT22;4957;51.412;6.724;2023-06-24T05:28:00;20.40;94.80
9837;DHT22;4957;51.412;6.724;2023-06-24T05:30:26;20.50;95.00
9837;DHT22;4957;51.412;6.724;2023-06-24T05:32:52;20.50;95.00
9837;DHT22;4957;51.412;6.724;2023-06-24T05:35:18;20.60;95.10
9837;DHT22;4957;51.412;6.724;2023-06-24T05:37:43;20.70;95.00
9837;DHT22;4957;51.412;6.724;2023-06-24T05:40:09;20.80;94.90
9837;DHT22;4957;51.412;6.724;2023-06-24T05:42:35;20.90;95.00
9837;DHT22;4957;51.412;6.724;2023-06-24T05:45:01;21.00;95.00
9837;DHT22;4957;51.412;6.724;2023-06-24T05:47:27;21.10;95.20
9837;DHT22;4957;51.412;6.724;2023-06-24T05:49:53;21.20;95.30
9837;DHT22;4957;51.412;6.724;2023-06-24T05:52:18;21.30;95.10
9837;DHT22;4957;51.412;6.724;2023-06-24T05:54:44;21.40;95.00
9837;DHT22;4957;51.412;6.724;2023-06-24T05:57:10;21.50;94.90
9837;DHT22;4957;51.412;6.724;2023-06-24T05:59:36;21.60;94.60
9837;DHT22;4957;51.412;6.724;2023-06-24T06:02:01;21.70;94.50
9837;DHT22;4957;51.412;6.724;2023-06-24T06:04:28;21.80;94.30
9837;DHT22;4957;51.412;6.724;2023-06-24T06:06:56;21.80;94.20
9837;DHT22;4957;51.412;6.724;2023-06-24T06:09:22;21.90;94.00
9837;DHT22;4957;51.412;6.724;2023-06-24T06:11:48;22.00;93.80
9837;DHT22;4957;51.412;6.724;2023-06-24T06:14:14;22.00;93.60
9837;DHT22;4957;51.412;6.724;2023-06-24T06:16:39;22.20;93.60
9837;DHT22;4957;51.412;6.724;2023-06-24T06:19:05;22.20;93.50
9837;DHT22;4957;51.412;6.724;2023-06-24T06:21:31;22.20;93.60
9837;DHT22;4957;51.412;6.724;2023-06-24T06:23:57;22.40;93.80
9837;DHT22;4957;51.412;6.724;2023-06-24T06:26:23;22.40;93.80
9837;DHT22;4957;51.412;6.724;2023-06-24T06:28:48;22.50;93.80
9837;DHT22;4957;51.412;6.724;2023-06-24T06:31:15;22.60;93.60
9837;DHT22;4957;51.412;6.724;2023-06-24T06:33:41;22.70;93.40
9837;DHT22;4957;51.412;6.724;2023-06-24T06:36:06;22.80;93.30
9837;DHT22;4957;51.412;6.724;2023-06-24T06:38:33;22.90;93.20
9837;DHT22;4957;51.412;6.724;2023-06-24T06:40:59;23.10;93.20
9837;DHT22;4957;51.412;6.724;2023-06-24T06:43:25;23.20;93.00
9837;DHT22;4957;51.412;6.724;2023-06-24T06:45:50;23.30;92.90
9837;DHT22;4957;51.412;6.724;2023-06-24T06:48:16;23.50;92.90
9837;DHT22;4957;51.412;6.724;2023-06-24T06:50:42;23.60;92.70
9837;DHT22;4957;51.412;6.724;2023-06-24T06:53:07;23.80;92.90
9837;DHT22;4957;51.412;6.724;2023-06-24T06:55:33;23.90;92.20
9837;DHT22;4957;51.412;6.724;2023-06-24T06:57:59;24.10;91.90
9837;DHT22;4957;51.412;6.724;2023-06-24T07:00:24;24.20;91.60
9837;DHT22;4957;51.412;6.724;2023-06-24T07:02:50;24.40;91.50
9837;DHT22;4957;51.412;6.724;2023-06-24T07:05:16;24.50;91.30
9837;DHT22;4957;51.412;6.724;2023-06-24T07:07:41;24.60;91.10
9837;DHT22;4957;51.412;6.724;2023-06-24T07:10:10;24.80;90.90
9837;DHT22;4957;51.412;6.724;2023-06-24T07:12:35;25.00;90.70
9837;DHT22;4957;51.412;6.724;2023-06-24T07:15:01;25.10;90.40
9837;DHT22;4957;51.412;6.724;2023-06-24T07:17:27;25.20;89.90
9837;DHT22;4957;51.412;6.724;2023-06-24T07:19:53;25.40;89.10
9837;DHT22;4957;51.412;6.724;2023-06-24T07:22:19;25.50;88.40
9837;DHT22;4957;51.412;6.724;2023-06-24T07:24:44;25.60;87.40
9837;DHT22;4957;51.412;6.724;2023-06-24T07:27:10;25.70;86.70
9837;DHT22;4957;51.412;6.724;2023-06-24T07:29:36;25.90;86.70
9837;DHT22;4957;51.412;6.724;2023-06-24T07:32:02;26.00;86.20
9837;DHT22;4957;51.412;6.724;2023-06-24T07:34:29;26.10;85.70
9837;DHT22;4957;51.412;6.724;2023-06-24T07:36:56;26.20;85.10
9837;DHT22;4957;51.412;6.724;2023-06-24T07:39:21;26.40;84.30
9837;DHT22;4957;51.412;6.724;2023-06-24T07:41:47;26.60;83.40
9837;DHT22;4957;51.412;6.724;2023-06-24T07:44:13;26.80;82.30
9837;DHT22;4957;51.412;6.724;2023-06-24T07:46:39;26.90;80.90
9837;DHT22;4957;51.412;6.724;2023-06-24T07:49:04;27.10;79.70
9837;DHT22;4957;51.412;6.724;2023-06-24T07:51:30;27.40;78.30
9837;DHT22;4957;51.412;6.724;2023-06-24T07:53:56;27.60;76.70
9837;DHT22;4957;51.412;6.724;2023-06-24T07:56:21;27.80;75.30
9837;DHT22;4957;51.412;6.724;2023-06-24T07:58:47;28.00;74.20
9837;DHT22;4957;51.412;6.724;2023-06-24T08:01:13;28.20;72.80
9837;DHT22;4957;51.412;6.724;2023-06-24T08:03:38;28.50;71.70
9837;DHT22;4957;51.412;6.724;2023-06-24T08:06:04;28.70;70.40
9837;DHT22;4957;51.412;6.724;2023-06-24T08:08:31;28.90;69.50
9837;DHT22;4957;51.412;6.724;2023-06-24T08:10:57;29.10;67.90
9837;DHT22;4957;51.412;6.724;2023-06-24T08:13:23;29.30;66.60
9837;DHT22;4957;51.412;6.724;2023-06-24T08:15:48;29.50;65.50
9837;DHT22;4957;51.412;6.724;2023-06-24T08:18:14;29.80;64.40
9837;DHT22;4957;51.412;6.724;2023-06-24T08:20:40;30.00;63.20
9837;DHT22;4957;51.412;6.724;2023-06-24T08:23:06;30.30;62.00
9837;DHT22;4957;51.412;6.724;2023-06-24T08:25:31;30.40;60.50
9837;DHT22;4957;51.412;6.724;2023-06-24T08:27:57;30.70;59.70
9837;DHT22;4957;51.412;6.724;2023-06-24T08:30:23;30.90;59.30
9837;DHT22;4957;51.412;6.724;2023-06-24T08:32:48;31.10;58.50
9837;DHT22;4957;51.412;6.724;2023-06-24T08:35:14;31.40;57.60
9837;DHT22;4957;51.412;6.724;2023-06-24T08:37:40;31.60;56.90
9837;DHT22;4957;51.412;6.724;2023-06-24T08:40:06;31.80;56.50
9837;DHT22;4957;51.412;6.724;2023-06-24T08:42:32;32.00;55.50
9837;DHT22;4957;51.412;6.724;2023-06-24T08:44:57;32.20;55.10
9837;DHT22;4957;51.412;6.724;2023-06-24T08:47:24;32.40;54.20
9837;DHT22;4957;51.412;6.724;2023-06-24T08:49:58;32.60;53.40
9837;DHT22;4957;51.412;6.724;2023-06-24T08:52:31;32.90;52.60
9837;DHT22;4957;51.412;6.724;2023-06-24T08:54:59;33.10;51.90
9837;DHT22;4957;51.412;6.724;2023-06-24T08:57:26;33.30;50.90
9837;DHT22;4957;51.412;6.724;2023-06-24T08:59:53;33.50;50.20
9837;DHT22;4957;51.412;6.724;2023-06-24T09:02:19;33.70;49.60
9837;DHT22;4957;51.412;6.724;2023-06-24T09:04:45;34.00;49.40
9837;DHT22;4957;51.412;6.724;2023-06-24T09:07:10;34.10;48.00
9837;DHT22;4957;51.412;6.724;2023-06-24T09:09:44;34.40;47.40
9837;DHT22;4957;51.412;6.724;2023-06-24T09:12:12;34.50;46.70
9837;DHT22;4957;51.412;6.724;2023-06-24T09:14:38;34.70;47.20
9837;DHT22;4957;51.412;6.724;2023-06-24T09:17:04;34.90;45.20
9837;DHT22;4957;51.412;6.724;2023-06-24T09:19:30;35.10;43.80
9837;DHT22;4957;51.412;6.724;2023-06-24T09:22:06;35.30;43.60
9837;DHT22;4957;51.412;6.724;2023-06-24T09:24:33;35.50;42.90
9837;DHT22;4957;51.412;6.724;2023-06-24T09:26:58;35.70;42.50
9837;DHT22;4957;51.412;6.724;2023-06-24T09:29:42;35.80;41.60
9837;DHT22;4957;51.412;6.724;2023-06-24T09:32:08;36.20;40.60
9837;DHT22;4957;51.412;6.724;2023-06-24T09:34:35;36.30;40.60
9837;DHT22;4957;51.412;6.724;2023-06-24T09:37:01;36.50;39.80
9837;DHT22;4957;51.412;6.724;2023-06-24T09:39:28;36.70;39.80
9837;DHT22;4957;51.412;6.724;2023-06-24T09:44:22;37.00;38.80
9837;DHT22;4957;51.412;6.724;2023-06-24T09:46:48;37.20;38.20
9837;DHT22;4957;51.412;6.724;2023-06-24T09:49:14;37.40;38.20
9837;DHT22;4957;51.412;6.724;2023-06-24T09:51:43;37.50;37.40
9837;DHT22;4957;51.412;6.724;2023-06-24T09:54:11;37.60;36.50
9837;DHT22;4957;51.412;6.724;2023-06-24T09:56:37;37.80;36.00
9837;DHT22;4957;51.412;6.724;2023-06-24T09:59:05;38.00;36.00
9837;DHT22;4957;51.412;6.724;2023-06-24T10:01:32;38.20;36.00
9837;DHT22;4957;51.412;6.724;2023-06-24T10:04:01;38.30;35.40
9837;DHT22;4957;51.412;6.724;2023-06-24T10:06:28;38.50;35.00
9837;DHT22;4957;51.412;6.724;2023-06-24T10:08:54;38.60;34.10
9837;DHT22;4957;51.412;6.724;2023-06-24T10:11:20;38.80;33.70
9837;DHT22;4957;51.412;6.724;2023-06-24T10:13:46;39.00;33.40
9837;DHT22;4957;51.412;6.724;2023-06-24T10:16:12;39.10;32.80
9837;DHT22;4957;51.412;6.724;2023-06-24T10:18:39;39.30;31.70
9837;DHT22;4957;51.412;6.724;2023-06-24T10:21:08;39.50;31.30
9837;DHT22;4957;51.412;6.724;2023-06-24T10:26:28;39.80;30.20
9837;DHT22;4957;51.412;6.724;2023-06-24T10:34:29;40.30;29.50
9837;DHT22;4957;51.412;6.724;2023-06-24T10:37:03;40.50;29.40
9837;DHT22;4957;51.412;6.724;2023-06-24T10:39:48;40.70;29.40
9837;DHT22;4957;51.412;6.724;2023-06-24T10:42:36;40.80;27.80
9837;DHT22;4957;51.412;6.724;2023-06-24T10:47:34;41.20;28.50
9837;DHT22;4957;51.412;6.724;2023-06-24T10:50:00;41.30;28.30
9837;DHT22;4957;51.412;6.724;2023-06-24T10:52:26;41.40;28.10
9837;DHT22;4957;51.412;6.724;2023-06-24T10:54:52;41.60;28.20
9837;DHT22;4957;51.412;6.724;2023-06-24T10:57:25;41.80;28.00
9837;DHT22;4957;51.412;6.724;2023-06-24T10:59:56;41.80;28.50
9837;DHT22;4957;51.412;6.724;2023-06-24T11:02:24;42.00;29.00
9837;DHT22;4957;51.412;6.724;2023-06-24T11:05:01;42.10;28.30
9837;DHT22;4957;51.412;6.724;2023-06-24T11:07:31;42.10;28.30
9837;DHT22;4957;51.412;6.724;2023-06-24T11:12:30;42.30;27.60
9837;DHT22;4957;51.412;6.724;2023-06-24T11:15:22;42.40;27.50
9837;DHT22;4957;51.412;6.724;2023-06-24T11:17:50;42.60;26.70
9837;DHT22;4957;51.412;6.724;2023-06-24T11:20:16;42.70;26.80
9837;DHT22;4957;51.412;6.724;2023-06-24T11:22:43;42.80;26.80
9837;DHT22;4957;51.412;6.724;2023-06-24T11:25:19;42.90;26.50
9837;DHT22;4957;51.412;6.724;2023-06-24T11:27:45;43.10;26.00
9837;DHT22;4957;51.412;6.724;2023-06-24T11:30:11;43.30;26.10
9837;DHT22;4957;51.412;6.724;2023-06-24T11:32:46;43.40;26.10
9837;DHT22;4957;51.412;6.724;2023-06-24T11:35:14;43.40;26.00
9837;DHT22;4957;51.412;6.724;2023-06-24T11:37:44;43.60;26.00
9837;DHT22;4957;51.412;6.724;2023-06-24T11:40:11;43.70;25.90
9837;DHT22;4957;51.412;6.724;2023-06-24T11:42:38;43.80;26.00
9837;DHT22;4957;51.412;6.724;2023-06-24T11:45:10;43.90;25.90
9837;DHT22;4957;51.412;6.724;2023-06-24T11:47:37;44.00;25.10
9837;DHT22;4957;51.412;6.724;2023-06-24T11:50:05;44.10;25.60
9837;DHT22;4957;51.412;6.724;2023-06-24T11:55:20;44.30;25.40
9837;DHT22;4957;51.412;6.724;2023-06-24T11:57:58;44.30;24.90
9837;DHT22;4957;51.412;6.724;2023-06-24T12:00:31;44.40;24.80
9837;DHT22;4957;51.412;6.724;2023-06-24T12:03:04;44.50;24.40
9837;DHT22;4957;51.412;6.724;2023-06-24T12:05:32;44.50;24.50
9837;DHT22;4957;51.412;6.724;2023-06-24T12:07:58;44.60;24.50
9837;DHT22;4957;51.412;6.724;2023-06-24T12:10:25;44.70;24.20
9837;DHT22;4957;51.412;6.724;2023-06-24T12:12:52;44.80;24.20
9837;DHT22;4957;51.412;6.724;2023-06-24T12:15:17;44.80;23.90
9837;DHT22;4957;51.412;6.724;2023-06-24T12:17:43;44.90;24.30
9837;DHT22;4957;51.412;6.724;2023-06-24T12:20:09;45.00;23.90
9837;DHT22;4957;51.412;6.724;2023-06-24T12:22:36;45.00;23.70
9837;DHT22;4957;51.412;6.724;2023-06-24T12:25:01;45.10;23.20
9837;DHT22;4957;51.412;6.724;2023-06-24T12:27:28;45.20;23.10
9837;DHT22;4957;51.412;6.724;2023-06-24T12:29:53;45.20;23.10
9837;DHT22;4957;51.412;6.724;2023-06-24T12:32:19;45.30;23.00
9837;DHT22;4957;51.412;6.724;2023-06-24T12:34:44;45.30;22.60
9837;DHT22;4957;51.412;6.724;2023-06-24T12:37:10;45.40;22.80
9837;DHT22;4957;51.412;6.724;2023-06-24T12:39:36;45.50;22.40
9837;DHT22;4957;51.412;6.724;2023-06-24T12:42:01;45.50;22.40
9837;DHT22;4957;51.412;6.724;2023-06-24T12:44:27;45.60;21.80
9837;DHT22;4957;51.412;6.724;2023-06-24T12:46:53;45.60;21.40
9837;DHT22;4957;51.412;6.724;2023-06-24T12:49:19;45.70;21.70
9837;DHT22;4957;51.412;6.724;2023-06-24T12:51:44;45.70;21.20
9837;DHT22;4957;51.412;6.724;2023-06-24T12:54:11;45.70;21.50
9837;DHT22;4957;51.412;6.724;2023-06-24T12:56:36;45.80;20.60
9837;DHT22;4957;51.412;6.724;2023-06-24T12:59:02;45.80;20.30
9837;DHT22;4957;51.412;6.724;2023-06-24T13:01:28;45.80;20.80
9837;DHT22;4957;51.412;6.724;2023-06-24T13:03:54;45.90;20.10
9837;DHT22;4957;51.412;6.724;2023-06-24T13:06:19;45.90;19.80
9837;DHT22;4957;51.412;6.724;2023-06-24T13:08:45;45.90;20.00
9837;DHT22;4957;51.412;6.724;2023-06-24T13:11:11;46.00;20.70
9837;DHT22;4957;51.412;6.724;2023-06-24T13:13:36;45.90;20.20
9837;DHT22;4957;51.412;6.724;2023-06-24T13:16:02;45.90;20.20
9837;DHT22;4957;51.412;6.724;2023-06-24T13:18:28;45.90;20.60
9837;DHT22;4957;51.412;6.724;2023-06-24T13:20:53;45.90;20.90
9837;DHT22;4957;51.412;6.724;2023-06-24T13:23:19;45.80;20.30
9837;DHT22;4957;51.412;6.724;2023-06-24T13:25:45;45.70;19.90
9837;DHT22;4957;51.412;6.724;2023-06-24T13:28:10;45.60;20.10
9837;DHT22;4957;51.412;6.724;2023-06-24T13:30:36;45.70;20.50
9837;DHT22;4957;51.412;6.724;2023-06-24T13:33:02;45.50;20.50
9837;DHT22;4957;51.412;6.724;2023-06-24T13:35:28;45.50;20.70
9837;DHT22;4957;51.412;6.724;2023-06-24T13:37:53;45.40;20.70
9837;DHT22;4957;51.412;6.724;2023-06-24T13:40:19;45.40;20.60
9837;DHT22;4957;51.412;6.724;2023-06-24T13:42:45;45.30;20.80
9837;DHT22;4957;51.412;6.724;2023-06-24T13:45:11;45.30;21.00
9837;DHT22;4957;51.412;6.724;2023-06-24T13:47:37;45.30;21.10
9837;DHT22;4957;51.412;6.724;2023-06-24T13:50:03;45.30;21.20
9837;DHT22;4957;51.412;6.724;2023-06-24T13:52:29;45.20;20.80
9837;DHT22;4957;51.412;6.724;2023-06-24T13:54:55;45.10;20.50
9837;DHT22;4957;51.412;6.724;2023-06-24T13:57:21;45.00;20.40
9837;DHT22;4957;51.412;6.724;2023-06-24T13:59:46;45.00;20.70
9837;DHT22;4957;51.412;6.724;2023-06-24T14:02:12;44.90;21.00
9837;DHT22;4957;51.412;6.724;2023-06-24T14:04:38;44.80;21.30
9837;DHT22;4957;51.412;6.724;2023-06-24T14:07:07;44.70;21.20
9837;DHT22;4957;51.412;6.724;2023-06-24T14:09:33;44.60;21.20
9837;DHT22;4957;51.412;6.724;2023-06-24T14:11:59;44.60;21.10
9837;DHT22;4957;51.412;6.724;2023-06-24T14:14:25;44.50;20.90
9837;DHT22;4957;51.412;6.724;2023-06-24T14:16:51;44.40;20.80
9837;DHT22;4957;51.412;6.724;2023-06-24T14:19:16;44.40;20.80
9837;DHT22;4957;51.412;6.724;2023-06-24T14:21:42;44.20;20.90
9837;DHT22;4957;51.412;6.724;2023-06-24T14:24:08;44.20;21.10
9837;DHT22;4957;51.412;6.724;2023-06-24T14:26:35;44.10;21.70
9837;DHT22;4957;51.412;6.724;2023-06-24T14:29:01;44.10;20.90
9837;DHT22;4957;51.412;6.724;2023-06-24T14:31:27;44.00;20.70
9837;DHT22;4957;51.412;6.724;2023-06-24T14:33:53;44.00;20.60
9837;DHT22;4957;51.412;6.724;2023-06-24T14:36:19;43.80;21.10
9837;DHT22;4957;51.412;6.724;2023-06-24T14:38:45;43.80;21.10
9837;DHT22;4957;51.412;6.724;2023-06-24T14:41:10;43.70;21.10
9837;DHT22;4957;51.412;6.724;2023-06-24T14:43:36;43.60;20.60
9837;DHT22;4957;51.412;6.724;2023-06-24T14:46:02;43.50;20.90
9837;DHT22;4957;51.412;6.724;2023-06-24T14:48:28;43.40;21.00
9837;DHT22;4957;51.412;6.724;2023-06-24T14:50:54;43.40;20.80
9837;DHT22;4957;51.412;6.724;2023-06-24T14:53:19;43.30;20.70
9837;DHT22;4957;51.412;6.724;2023-06-24T14:55:45;43.30;20.80
9837;DHT22;4957;51.412;6.724;2023-06-24T14:58:11;43.30;21.40
9837;DHT22;4957;51.412;6.724;2023-06-24T15:00:37;43.30;21.20
9837;DHT22;4957;51.412;6.724;2023-06-24T15:03:03;43.20;20.30
9837;DHT22;4957;51.412;6.724;2023-06-24T15:05:29;43.20;20.20
9837;DHT22;4957;51.412;6.724;2023-06-24T15:07:54;43.10;20.40
9837;DHT22;4957;51.412;6.724;2023-06-24T15:10:20;43.00;20.10
9837;DHT22;4957;51.412;6.724;2023-06-24T15:12:46;42.90;20.20
9837;DHT22;4957;51.412;6.724;2023-06-24T15:15:11;42.80;20.30
9837;DHT22;4957;51.412;6.724;2023-06-24T15:17:37;42.80;20.30
9837;DHT22;4957;51.412;6.724;2023-06-24T15:20:07;42.70;20.60
9837;DHT22;4957;51.412;6.724;2023-06-24T15:22:34;42.70;20.90
9837;DHT22;4957;51.412;6.724;2023-06-24T15:25:00;42.70;21.30
9837;DHT22;4957;51.412;6.724;2023-06-24T15:27:25;42.70;20.90
9837;DHT22;4957;51.412;6.724;2023-06-24T15:29:51;42.60;20.70
9837;DHT22;4957;51.412;6.724;2023-06-24T15:32:17;42.60;20.80
9837;DHT22;4957;51.412;6.724;2023-06-24T15:34:43;42.50;20.70
9837;DHT22;4957;51.412;6.724;2023-06-24T15:37:09;42.50;21.10
9837;DHT22;4957;51.412;6.724;2023-06-24T15:39:34;42.50;21.00
9837;DHT22;4957;51.412;6.724;2023-06-24T15:42:00;42.50;21.10
9837;DHT22;4957;51.412;6.724;2023-06-24T15:44:26;42.50;22.10
9837;DHT22;4957;51.412;6.724;2023-06-24T15:46:51;42.40;21.70
9837;DHT22;4957;51.412;6.724;2023-06-24T15:49:17;42.40;21.50
9837;DHT22;4957;51.412;6.724;2023-06-24T15:51:43;42.40;22.00
9837;DHT22;4957;51.412;6.724;2023-06-24T15:54:09;42.40;21.90
9837;DHT22;4957;51.412;6.724;2023-06-24T15:56:35;42.40;22.00
9837;DHT22;4957;51.412;6.724;2023-06-24T15:59:00;42.30;21.70
9837;DHT22;4957;51.412;6.724;2023-06-24T16:01:26;42.20;21.50
9837;DHT22;4957;51.412;6.724;2023-06-24T16:03:52;42.10;21.50
9837;DHT22;4957;51.412;6.724;2023-06-24T16:06:18;42.10;21.90
9837;DHT22;4957;51.412;6.724;2023-06-24T16:08:44;42.00;21.80
9837;DHT22;4957;51.412;6.724;2023-06-24T16:11:10;42.00;21.90
9837;DHT22;4957;51.412;6.724;2023-06-24T16:13:36;42.00;22.60
9837;DHT22;4957;51.412;6.724;2023-06-24T16:16:01;42.00;22.10
9837;DHT22;4957;51.412;6.724;2023-06-24T16:18:27;42.00;22.30
9837;DHT22;4957;51.412;6.724;2023-06-24T16:20:53;41.90;22.00
9837;DHT22;4957;51.412;6.724;2023-06-24T16:23:19;42.00;22.10
9837;DHT22;4957;51.412;6.724;2023-06-24T16:25:45;41.90;22.00
9837;DHT22;4957;51.412;6.724;2023-06-24T16:28:10;41.90;21.90
9837;DHT22;4957;51.412;6.724;2023-06-24T16:30:36;41.70;21.80
9837;DHT22;4957;51.412;6.724;2023-06-24T16:33:02;41.70;22.00
9837;DHT22;4957;51.412;6.724;2023-06-24T16:35:28;41.60;22.50